createdAt,value
2022-11-10T01:02:26.092Z,22.96
2022-11-10T01:22:26.343Z,22.96
2022-11-10T01:42:26.328Z,22.96
2022-11-10T02:02:26.314Z,22.96
2022-11-10T02:22:26.294Z,22.96
2022-11-10T02:42:26.270Z,22.96
2022-11-10T03:02:29.763Z,22.96
2022-11-10T03:22:26.241Z,22.96
2022-11-10T03:42:26.215Z,22.95
2022-11-10T04:02:26.194Z,22.96
2022-11-10T04:22:26.239Z,22.96
2022-11-10T04:42:26.152Z,22.96
2022-11-10T05:02:26.111Z,22.95
2022-11-10T05:22:26.112Z,22.96
2022-11-10T05:42:26.096Z,22.95
2022-11-10T06:02:26.073Z,22.95
2022-11-10T06:22:26.052Z,22.95
2022-11-10T06:42:26.046Z,22.95
2022-11-10T07:02:25.740Z,22.95
2022-11-10T07:22:25.993Z,22.95
2022-11-10T07:42:25.717Z,22.95
2022-11-10T08:02:25.955Z,22.95
2022-11-10T08:22:25.662Z,22.95
2022-11-10T08:42:25.906Z,22.94
2022-11-10T09:02:25.605Z,22.94
2022-11-10T09:22:25.860Z,22.94
2022-11-10T09:42:25.828Z,22.94
2022-11-10T10:02:25.777Z,22.94
2022-11-10T10:22:25.760Z,22.94
2022-11-10T10:42:25.721Z,22.94
2022-11-10T11:02:25.070Z,22.93
2022-11-10T11:22:25.668Z,22.93
2022-11-10T11:42:25.363Z,22.93
2022-11-10T12:02:25.676Z,22.92
2022-11-10T12:22:25.570Z,22.92
2022-11-10T12:42:25.254Z,22.92
2022-11-10T13:02:25.497Z,22.91
2022-11-10T13:22:25.441Z,22.91
2022-11-10T14:02:25.394Z,22.91
2022-11-10T14:22:25.360Z,22.9
2022-11-10T14:42:25.340Z,22.9
2022-11-10T15:42:25.245Z,22.9
2022-11-10T16:22:25.199Z,22.89
2022-11-10T16:42:25.181Z,22.89
2022-11-10T17:02:25.139Z,22.9
2022-11-10T17:22:25.129Z,22.9
2022-11-10T17:42:25.112Z,22.89
2022-11-10T18:22:25.046Z,22.9
2022-11-10T18:42:25.044Z,22.89
2022-11-10T19:02:24.749Z,22.89
2022-11-10T20:22:24.932Z,22.89
2022-11-10T20:42:24.909Z,22.89
2022-11-10T21:02:24.891Z,22.89
2022-11-10T22:02:24.837Z,22.89
2022-11-10T23:42:24.754Z,22.89
